Back to Top

Language: 

My Weather Underground Personal Weather Station Historical Data with Graphs...

Delerius Weather Station Historical Data
Daily Summary for June 22, 2017 Units:  English    Metric   Both
« Previous Day
Next Day »
Daily Weekly Monthly Yearly Custom
  High: Low: Average:
Temperature: 71.4 °F 58.6 °F 65.1 °F
Dew Point: 68.0 °F 51.1 °F 57.8 °F
Humidity: 93 % 60 % 78 %
Wind Speed: 16.0 mph 0.0 mph 8.9 mph
Wind Gust: 31.0 mph - -
Wind:- - West
Pressure: 29.89 in 29.73 in -
Precipitation: 0.00 in    
Historical Graphs
 
 
Tabular Data for June 22, 2017
Time Temperature Dew Point Pressure Wind Wind Speed Wind Gust Humidity Rainfall Rate (Hourly) solar Conditions
00:02 70.5 °F 67.8 °F 29.77 in East 1.0 mph 4.0 mph 91 % 0.00 in 0 W/m2
00:07 70.3 °F 67.6 °F 29.76 in Calm   1.0 mph 91 % 0.00 in 0 W/m2
00:12 70.2 °F 67.4 °F 29.76 in Calm     91 % 0.00 in 0 W/m2
00:17 70.0 °F 67.2 °F 29.76 in Calm     91 % 0.00 in 0 W/m2
00:22 69.8 °F 67.1 °F 29.76 in Calm     91 % 0.00 in 0 W/m2
00:27 69.6 °F 67.2 °F 29.76 in Calm   1.0 mph 92 % 0.00 in 0 W/m2
00:32 69.4 °F 67.0 °F 29.76 in Calm   1.0 mph 92 % 0.00 in 0 W/m2
00:37 69.4 °F 67.3 °F 29.76 in Calm   2.0 mph 93 % 0.00 in 0 W/m2
00:42 69.4 °F 67.3 °F 29.76 in Calm   2.0 mph 93 % 0.00 in 0 W/m2
00:47 69.4 °F 67.3 °F 29.76 in Calm   1.0 mph 93 % 0.00 in 0 W/m2
00:52 69.3 °F 67.1 °F 29.75 in Calm     93 % 0.00 in 0 W/m2
00:57 69.3 °F 67.1 °F 29.75 in Calm   2.0 mph 93 % 0.00 in 0 W/m2
01:02 69.3 °F 67.1 °F 29.75 in Calm   2.0 mph 93 % 0.00 in 0 W/m2
01:07 69.3 °F 67.1 °F 29.75 in SSW 1.0 mph 7.0 mph 93 % 0.00 in 0 W/m2
01:12 69.6 °F 67.5 °F 29.75 in SW 3.0 mph 10.0 mph 93 % 0.00 in 0 W/m2
01:17 70.2 °F 68.0 °F 29.75 in SW 5.0 mph 10.0 mph 93 % 0.00 in 0 W/m2
01:22 70.7 °F 67.9 °F 29.75 in SW 7.0 mph 11.0 mph 91 % 0.00 in 0 W/m2
01:27 71.1 °F 68.0 °F 29.74 in SW 8.0 mph 13.0 mph 90 % 0.00 in 0 W/m2
01:32 71.4 °F 68.0 °F 29.74 in SW 8.0 mph 13.0 mph 89 % 0.00 in 0 W/m2
01:37 71.4 °F 67.7 °F 29.74 in SW 7.0 mph 11.0 mph 88 % 0.00 in 0 W/m2
01:42 71.4 °F 67.7 °F 29.74 in SW 6.0 mph 10.0 mph 88 % 0.00 in 0 W/m2
01:47 71.4 °F 67.3 °F 29.74 in SW 7.0 mph 10.0 mph 87 % 0.00 in 0 W/m2
01:52 71.2 °F 67.2 °F 29.74 in SW 7.0 mph 10.0 mph 87 % 0.00 in 0 W/m2
01:57 71.1 °F 66.7 °F 29.74 in SW 6.0 mph 9.0 mph 86 % 0.00 in 0 W/m2
02:02 71.1 °F 66.3 °F 29.73 in SW 6.0 mph 11.0 mph 85 % 0.00 in 0 W/m2
02:08 70.9 °F 65.8 °F 29.74 in WSW 7.0 mph 12.0 mph 84 % 0.00 in 0 W/m2
02:13 70.7 °F 65.3 °F 29.74 in WSW 7.0 mph 12.0 mph 83 % 0.00 in 0 W/m2
02:18 70.7 °F 64.9 °F 29.73 in SW 7.0 mph 12.0 mph 82 % 0.00 in 0 W/m2
02:23 70.5 °F 64.4 °F 29.73 in SW 7.0 mph 11.0 mph 81 % 0.00 in 0 W/m2
02:28 70.3 °F 64.2 °F 29.73 in WSW 4.0 mph 11.0 mph 81 % 0.00 in 0 W/m2
02:33 70.0 °F 63.9 °F 29.73 in NW 3.0 mph 6.0 mph 81 % 0.00 in 0 W/m2
02:38 69.4 °F 63.0 °F 29.73 in NW 3.0 mph 6.0 mph 80 % 0.00 in 0 W/m2
02:43 69.1 °F 61.9 °F 29.73 in NW 4.0 mph 8.0 mph 78 % 0.00 in 0 W/m2
02:48 68.7 °F 61.6 °F 29.74 in NW 5.0 mph 8.0 mph 78 % 0.00 in 0 W/m2
02:53 68.5 °F 61.8 °F 29.74 in NW 5.0 mph 9.0 mph 79 % 0.00 in 0 W/m2
02:58 68.4 °F 61.9 °F 29.73 in WNW 6.0 mph 9.0 mph 80 % 0.00 in 0 W/m2
03:03 68.2 °F 61.8 °F 29.73 in WNW 6.0 mph 9.0 mph 80 % 0.00 in 0 W/m2
03:08 68.0 °F 61.9 °F 29.73 in WNW 7.0 mph 12.0 mph 81 % 0.00 in 0 W/m2
03:13 68.0 °F 62.3 °F 29.73 in WNW 8.0 mph 14.0 mph 82 % 0.00 in 0 W/m2
03:18 68.2 °F 62.5 °F 29.73 in West 9.0 mph 15.0 mph 82 % 0.00 in 0 W/m2
03:23 68.4 °F 62.6 °F 29.73 in West 9.0 mph 15.0 mph 82 % 0.00 in 0 W/m2
03:28 68.5 °F 62.8 °F 29.73 in West 10.0 mph 18.0 mph 82 % 0.00 in 0 W/m2
03:34 68.5 °F 62.8 °F 29.73 in West 9.0 mph 18.0 mph 82 % 0.00 in 0 W/m2
03:39 68.5 °F 62.8 °F 29.74 in WSW 8.0 mph 14.0 mph 82 % 0.00 in 0 W/m2
03:44 68.4 °F 63.0 °F 29.73 in West 6.0 mph 11.0 mph 83 % 0.00 in 0 W/m2
03:49 68.2 °F 62.8 °F 29.73 in West 6.0 mph 11.0 mph 83 % 0.00 in 0 W/m2
03:54 67.8 °F 62.5 °F 29.74 in WNW 6.0 mph 11.0 mph 83 % 0.00 in 0 W/m2
03:59 67.5 °F 62.5 °F 29.74 in WNW 6.0 mph 11.0 mph 84 % 0.00 in 0 W/m2
04:04 67.3 °F 62.3 °F 29.74 in West 6.0 mph 12.0 mph 84 % 0.00 in 0 W/m2
04:09 67.3 °F 62.6 °F 29.74 in West 7.0 mph 12.0 mph 85 % 0.00 in 0 W/m2
04:14 67.1 °F 62.4 °F 29.73 in West 8.0 mph 15.0 mph 85 % 0.00 in 0 W/m2
04:19 67.1 °F 62.4 °F 29.74 in West 8.0 mph 15.0 mph 85 % 0.00 in 0 W/m2
04:24 66.9 °F 62.3 °F 29.74 in West 8.0 mph 12.0 mph 85 % 0.00 in 0 W/m2
04:29 66.9 °F 62.3 °F 29.74 in WNW 7.0 mph 12.0 mph 85 % 0.00 in 0 W/m2
04:34 66.7 °F 62.4 °F 29.74 in WNW 8.0 mph 13.0 mph 86 % 0.00 in 0 W/m2
04:39 66.7 °F 62.4 °F 29.73 in West 8.0 mph 14.0 mph 86 % 0.00 in 0 W/m2
04:44 66.7 °F 62.4 °F 29.73 in WNW 8.0 mph 14.0 mph 86 % 0.00 in 5 W/m2
04:49 66.6 °F 62.6 °F 29.74 in WNW 8.0 mph 13.0 mph 87 % 0.00 in 7 W/m2
04:54 66.6 °F 62.6 °F 29.74 in WNW 8.0 mph 14.0 mph 87 % 0.00 in 7 W/m2
04:59 66.6 °F 62.6 °F 29.74 in WNW 9.0 mph 16.0 mph 87 % 0.00 in 11 W/m2
05:04 66.0 °F 62.0 °F 29.74 in WNW 9.0 mph 18.0 mph 87 % 0.00 in 14 W/m2
05:09 65.7 °F 61.7 °F 29.75 in WNW 9.0 mph 18.0 mph 87 % 0.00 in 16 W/m2
05:14 65.5 °F 61.8 °F 29.75 in WNW 8.0 mph 18.0 mph 88 % 0.00 in 18 W/m2
05:15 65.3 °F 61.7 °F 29.75 in WNW 8.0 mph 18.0 mph 88 % 0.00 in 18 W/m2
05:20 65.1 °F 61.5 °F 29.75 in WNW 7.0 mph 13.0 mph 88 % 0.00 in 12 W/m2
05:25 64.9 °F 61.3 °F 29.75 in WNW 5.0 mph 12.0 mph 88 % 0.00 in 18 W/m2
05:30 64.8 °F 61.1 °F 29.75 in WNW 2.0 mph 7.0 mph 88 % 0.00 in 21 W/m2
05:35 64.6 °F 60.9 °F 29.75 in NW 1.0 mph 6.0 mph 88 % 0.00 in 11 W/m2
05:40 64.4 °F 60.8 °F 29.76 in NW 2.0 mph 7.0 mph 88 % 0.00 in 11 W/m2
05:45 64.2 °F 60.3 °F 29.76 in NW 4.0 mph 10.0 mph 87 % 0.00 in 9 W/m2
05:50 64.0 °F 60.1 °F 29.76 in NW 6.0 mph 12.0 mph 87 % 0.00 in 11 W/m2
05:55 63.9 °F 59.9 °F 29.75 in WNW 6.0 mph 12.0 mph 87 % 0.00 in 14 W/m2
06:00 63.9 °F 59.9 °F 29.76 in WNW 5.0 mph 10.0 mph 87 % 0.00 in 14 W/m2
06:05 63.9 °F 59.9 °F 29.76 in WNW 6.0 mph 10.0 mph 87 % 0.00 in 28 W/m2
06:10 63.7 °F 59.7 °F 29.76 in NW 6.0 mph 10.0 mph 87 % 0.00 in 60 W/m2
06:15 63.9 °F 59.9 °F 29.76 in WNW 6.0 mph 10.0 mph 87 % 0.00 in 47 W/m2
06:20 63.9 °F 59.9 °F 29.76 in WNW 7.0 mph 11.0 mph 87 % 0.00 in 81 W/m2
06:25 63.7 °F 59.7 °F 29.76 in WNW 8.0 mph 14.0 mph 87 % 0.00 in 88 W/m2
06:30 63.7 °F 59.4 °F 29.75 in WNW 9.0 mph 14.0 mph 86 % 0.00 in 86 W/m2
06:35 63.7 °F 59.7 °F 29.75 in West 9.0 mph 13.0 mph 87 % 0.00 in 81 W/m2
06:40 63.7 °F 59.4 °F 29.75 in West 10.0 mph 16.0 mph 86 % 0.00 in 84 W/m2
06:55 63.9 °F 59.6 °F 29.75 in WNW 8.0 mph 15.0 mph 86 % 0.00 in 107 W/m2
07:00 63.9 °F 59.6 °F 29.76 in WNW 7.0 mph 15.0 mph 86 % 0.00 in 86 W/m2
07:05 63.9 °F 59.6 °F 29.76 in West 6.0 mph 10.0 mph 86 % 0.00 in 104 W/m2
07:10 63.9 °F 59.3 °F 29.76 in West 6.0 mph 9.0 mph 85 % 0.00 in 142 W/m2
07:15 63.9 °F 59.3 °F 29.76 in WSW 6.0 mph 10.0 mph 85 % 0.00 in 114 W/m2
07:20 64.0 °F 59.4 °F 29.76 in WSW 5.0 mph 10.0 mph 85 % 0.00 in 105 W/m2
07:25 64.0 °F 59.4 °F 29.76 in WSW 4.0 mph 9.0 mph 85 % 0.00 in 88 W/m2
07:30 64.2 °F 59.6 °F 29.76 in WSW 5.0 mph 9.0 mph 85 % 0.00 in 127 W/m2
07:35 64.2 °F 59.6 °F 29.76 in WSW 5.0 mph 9.0 mph 85 % 0.00 in 107 W/m2
07:40 64.4 °F 59.5 °F 29.76 in West 5.0 mph 11.0 mph 84 % 0.00 in 90 W/m2
07:45 64.4 °F 59.5 °F 29.76 in West 6.0 mph 11.0 mph 84 % 0.00 in 67 W/m2
07:50 64.2 °F 59.3 °F 29.76 in WSW 6.0 mph 11.0 mph 84 % 0.00 in 69 W/m2
07:55 64.0 °F 59.4 °F 29.76 in WSW 7.0 mph 12.0 mph 85 % 0.00 in 216 W/m2
08:00 64.2 °F 59.6 °F 29.75 in WSW 8.0 mph 18.0 mph 85 % 0.00 in 285 W/m2
08:05 64.2 °F 59.3 °F 29.75 in WSW 9.0 mph 18.0 mph 84 % 0.00 in 265 W/m2
08:10 64.4 °F 59.5 °F 29.75 in WSW 9.0 mph 14.0 mph 84 % 0.00 in 260 W/m2
08:15 64.8 °F 59.8 °F 29.75 in WSW 9.0 mph 14.0 mph 84 % 0.00 in 302 W/m2
08:20 64.9 °F 59.7 °F 29.75 in West 9.0 mph 16.0 mph 83 % 0.00 in 171 W/m2
08:25 65.1 °F 59.8 °F 29.75 in West 8.0 mph 16.0 mph 83 % 0.00 in 176 W/m2
08:26 65.1 °F 59.8 °F 29.75 in West 8.0 mph 16.0 mph 83 % 0.00 in 176 W/m2
08:31 65.1 °F 59.8 °F 29.76 in West 8.0 mph 14.0 mph 83 % 0.00 in 153 W/m2
08:32 65.1 °F 59.8 °F 29.76 in West 8.0 mph 14.0 mph 83 % 0.00 in 153 W/m2
08:37 65.1 °F 59.8 °F 29.76 in West 10.0 mph 16.0 mph 83 % 0.00 in 156 W/m2
08:42 64.9 °F 59.3 °F 29.76 in West 9.0 mph 16.0 mph 82 % 0.00 in 165 W/m2
08:47 64.9 °F 59.3 °F 29.76 in West 8.0 mph 15.0 mph 82 % 0.00 in 276 W/m2
08:52 65.1 °F 59.5 °F 29.76 in West 7.0 mph 11.0 mph 82 % 0.00 in 503 W/m2
08:57 65.5 °F 59.8 °F 29.76 in WSW 8.0 mph 13.0 mph 82 % 0.00 in 290 W/m2
09:02 65.5 °F 59.5 °F 29.76 in West 10.0 mph 22.0 mph 81 % 0.00 in 121 W/m2
09:07 65.1 °F 58.8 °F 29.76 in West 13.0 mph 22.0 mph 80 % 0.00 in 167 W/m2
09:12 65.1 °F 59.1 °F 29.75 in West 12.0 mph 20.0 mph 81 % 0.00 in 287 W/m2
09:17 65.1 °F 59.1 °F 29.75 in WSW 11.0 mph 19.0 mph 81 % 0.00 in 403 W/m2
09:22 65.7 °F 59.7 °F 29.75 in West 9.0 mph 19.0 mph 81 % 0.00 in 554 W/m2
09:27 66.6 °F 60.5 °F 29.75 in West 8.0 mph 13.0 mph 81 % 0.00 in 592 W/m2
09:32 67.6 °F 60.9 °F 29.74 in WNW 8.0 mph 18.0 mph 79 % 0.00 in 612 W/m2
09:37 68.5 °F 61.4 °F 29.75 in WNW 8.0 mph 18.0 mph 78 % 0.00 in 647 W/m2
09:42 69.1 °F 61.2 °F 29.76 in WNW 7.0 mph 13.0 mph 76 % 0.00 in 269 W/m2
09:47 69.1 °F 60.8 °F 29.76 in West 9.0 mph 15.0 mph 75 % 0.00 in 100 W/m2
09:52 68.9 °F 60.6 °F 29.76 in West 10.0 mph 18.0 mph 75 % 0.00 in 141 W/m2
09:57 68.4 °F 60.1 °F 29.76 in WNW 11.0 mph 20.0 mph 75 % 0.00 in 223 W/m2
10:02 67.8 °F 60.0 °F 29.76 in WNW 11.0 mph 20.0 mph 76 % 0.00 in 227 W/m2
10:07 67.6 °F 60.2 °F 29.76 in WNW 10.0 mph 18.0 mph 77 % 0.00 in 195 W/m2
10:12 67.5 °F 60.0 °F 29.76 in WNW 8.0 mph 15.0 mph 77 % 0.00 in 258 W/m2
10:17 67.3 °F 59.8 °F 29.76 in West 8.0 mph 15.0 mph 77 % 0.00 in 155 W/m2
10:22 67.3 °F 60.2 °F 29.77 in West 7.0 mph 14.0 mph 78 % 0.00 in 176 W/m2
10:27 67.3 °F 60.2 °F 29.76 in WNW 6.0 mph 12.0 mph 78 % 0.00 in 128 W/m2
10:32 67.3 °F 60.2 °F 29.77 in WNW 8.0 mph 15.0 mph 78 % 0.00 in 105 W/m2
10:37 66.9 °F 59.8 °F 29.77 in West 9.0 mph 15.0 mph 78 % 0.00 in 107 W/m2
10:42 66.4 °F 59.7 °F 29.77 in West 9.0 mph 16.0 mph 79 % 0.00 in 76 W/m2
10:47 66.0 °F 59.7 °F 29.78 in West 9.0 mph 19.0 mph 80 % 0.00 in 54 W/m2
10:52 65.7 °F 59.3 °F 29.78 in WNW 9.0 mph 19.0 mph 80 % 0.00 in 53 W/m2
10:57 65.5 °F 59.5 °F 29.78 in WNW 9.0 mph 22.0 mph 81 % 0.00 in 63 W/m2
11:02 64.9 °F 59.0 °F 29.78 in WNW 11.0 mph 23.0 mph 81 % 0.00 in 62 W/m2
11:07 64.4 °F 58.8 °F 29.78 in WNW 14.0 mph 23.0 mph 82 % 0.00 in 65 W/m2
11:13 63.9 °F 58.3 °F 29.78 in WNW 12.0 mph 23.0 mph 82 % 0.00 in 72 W/m2
11:18 63.7 °F 58.4 °F 29.79 in West 11.0 mph 18.0 mph 83 % 0.00 in 53 W/m2
11:23 63.3 °F 58.1 °F 29.78 in West 10.0 mph 18.0 mph 83 % 0.00 in 67 W/m2
11:28 63.3 °F 58.4 °F 29.78 in West 9.0 mph 15.0 mph 84 % 0.00 in 185 W/m2
11:33 63.7 °F 58.8 °F 29.78 in WNW 10.0 mph 18.0 mph 84 % 0.00 in 301 W/m2
11:38 63.9 °F 58.9 °F 29.78 in WNW 10.0 mph 18.0 mph 84 % 0.00 in 480 W/m2
11:43 64.6 °F 59.3 °F 29.78 in WNW 9.0 mph 15.0 mph 83 % 0.00 in 202 W/m2
11:48 64.9 °F 59.3 °F 29.78 in WNW 9.0 mph 14.0 mph 82 % 0.00 in 153 W/m2
11:53 64.9 °F 59.0 °F 29.78 in WNW 10.0 mph 18.0 mph 81 % 0.00 in 93 W/m2
11:58 64.6 °F 58.3 °F 29.79 in WNW 12.0 mph 22.0 mph 80 % 0.00 in 86 W/m2
12:03 64.2 °F 57.9 °F 29.78 in West 12.0 mph 22.0 mph 80 % 0.00 in 65 W/m2
12:08 64.0 °F 57.7 °F 29.79 in West 12.0 mph 22.0 mph 80 % 0.00 in 67 W/m2
12:13 64.0 °F 57.7 °F 29.78 in WNW 10.0 mph 20.0 mph 80 % 0.00 in 72 W/m2
12:18 63.9 °F 57.6 °F 29.78 in WNW 10.0 mph 19.0 mph 80 % 0.00 in 72 W/m2
12:23 63.7 °F 57.7 °F 29.78 in WNW 11.0 mph 20.0 mph 81 % 0.00 in 95 W/m2
12:28 63.7 °F 57.7 °F 29.78 in WNW 10.0 mph 20.0 mph 81 % 0.00 in 188 W/m2
12:33 63.7 °F 57.7 °F 29.79 in WNW 10.0 mph 20.0 mph 81 % 0.00 in 192 W/m2
12:35 63.7 °F 57.7 °F 29.79 in WNW 11.0 mph 20.0 mph 81 % 0.00 in 195 W/m2
12:40 63.9 °F 57.6 °F 29.79 in WNW 11.0 mph 20.0 mph 80 % 0.00 in 213 W/m2
12:44 64.0 °F 57.4 °F 29.79 in WNW 13.0 mph 21.0 mph 79 % 0.00 in 195 W/m2
12:49 64.0 °F 57.0 °F 29.79 in WNW 14.0 mph 21.0 mph 78 % 0.00 in 192 W/m2
12:54 64.0 °F 57.4 °F 29.79 in WNW 12.0 mph 21.0 mph 79 % 0.00 in 144 W/m2
12:59 64.0 °F 57.0 °F 29.79 in WNW 11.0 mph 20.0 mph 78 % 0.00 in 132 W/m2
13:04 63.9 °F 56.5 °F 29.80 in WNW 13.0 mph 24.0 mph 77 % 0.00 in 116 W/m2
13:09 63.5 °F 56.2 °F 29.80 in WNW 14.0 mph 25.0 mph 77 % 0.00 in 156 W/m2
13:14 63.5 °F 56.5 °F 29.80 in WNW 13.0 mph 25.0 mph 78 % 0.00 in 137 W/m2
13:19 63.3 °F 56.3 °F 29.80 in WNW 13.0 mph 21.0 mph 78 % 0.00 in 134 W/m2
13:24 63.1 °F 55.8 °F 29.81 in WNW 15.0 mph 23.0 mph 77 % 0.00 in 141 W/m2
13:29 63.0 °F 56.3 °F 29.81 in WNW 13.0 mph 23.0 mph 79 % 0.00 in 225 W/m2
13:34 63.1 °F 56.2 °F 29.81 in WNW 11.0 mph 21.0 mph 78 % 0.00 in 172 W/m2
13:39 63.3 °F 56.3 °F 29.81 in WNW 13.0 mph 24.0 mph 78 % 0.00 in 116 W/m2
13:44 63.3 °F 56.3 °F 29.81 in WNW 13.0 mph 25.0 mph 78 % 0.00 in 128 W/m2
13:49 63.5 °F 56.5 °F 29.81 in WNW 12.0 mph 25.0 mph 78 % 0.00 in 134 W/m2
13:54 63.5 °F 56.5 °F 29.81 in WNW 11.0 mph 23.0 mph 78 % 0.00 in 178 W/m2
13:59 63.7 °F 56.3 °F 29.81 in WNW 11.0 mph 23.0 mph 77 % 0.00 in 162 W/m2
14:04 63.9 °F 56.5 °F 29.81 in WNW 12.0 mph 24.0 mph 77 % 0.00 in 141 W/m2
14:09 63.9 °F 56.5 °F 29.81 in WNW 11.0 mph 24.0 mph 77 % 0.00 in 132 W/m2
14:14 63.7 °F 56.0 °F 29.81 in WNW 12.0 mph 30.0 mph 76 % 0.00 in 139 W/m2
14:19 63.5 °F 55.8 °F 29.81 in WNW 12.0 mph 30.0 mph 76 % 0.00 in 237 W/m2
14:24 63.9 °F 56.1 °F 29.81 in WNW 13.0 mph 28.0 mph 76 % 0.00 in 436 W/m2
14:29 64.2 °F 55.8 °F 29.82 in WNW 15.0 mph 28.0 mph 74 % 0.00 in 390 W/m2
14:34 64.6 °F 56.1 °F 29.82 in West 14.0 mph 23.0 mph 74 % 0.00 in 278 W/m2
14:39 64.9 °F 56.1 °F 29.82 in WNW 13.0 mph 23.0 mph 73 % 0.00 in 452 W/m2
14:44 65.5 °F 56.6 °F 29.82 in WNW 11.0 mph 22.0 mph 73 % 0.00 in 309 W/m2
14:49 65.7 °F 55.6 °F 29.82 in WNW 12.0 mph 26.0 mph 70 % 0.00 in 436 W/m2
14:54 65.7 °F 55.6 °F 29.82 in WNW 16.0 mph 26.0 mph 70 % 0.00 in 288 W/m2
14:59 65.3 °F 55.3 °F 29.82 in West 15.0 mph 26.0 mph 70 % 0.00 in 142 W/m2
15:04 64.9 °F 55.3 °F 29.82 in WNW 13.0 mph 23.0 mph 71 % 0.00 in 250 W/m2
15:09 65.1 °F 55.5 °F 29.82 in WNW 11.0 mph 19.0 mph 71 % 0.00 in 216 W/m2
15:14 65.1 °F 54.7 °F 29.82 in WNW 12.0 mph 23.0 mph 69 % 0.00 in 299 W/m2
15:19 65.1 °F 54.3 °F 29.82 in WNW 14.0 mph 26.0 mph 68 % 0.00 in 327 W/m2
15:24 65.1 °F 54.7 °F 29.82 in West 16.0 mph 28.0 mph 69 % 0.00 in 304 W/m2
15:30 65.5 °F 55.0 °F 29.82 in West 15.0 mph 28.0 mph 69 % 0.00 in 429 W/m2
15:34 65.5 °F 55.0 °F 29.82 in West 15.0 mph 28.0 mph 69 % 0.00 in 371 W/m2
15:40 65.7 °F 55.2 °F 29.82 in West 14.0 mph 25.0 mph 69 % 0.00 in 338 W/m2
15:45 65.8 °F 54.6 °F 29.83 in WNW 15.0 mph 27.0 mph 67 % 0.00 in 253 W/m2
15:50 65.5 °F 54.6 °F 29.83 in WNW 15.0 mph 27.0 mph 68 % 0.00 in 207 W/m2
15:55 65.5 °F 54.6 °F 29.83 in WNW 14.0 mph 27.0 mph 68 % 0.00 in 360 W/m2
16:00 65.8 °F 54.6 °F 29.83 in WNW 13.0 mph 23.0 mph 67 % 0.00 in 439 W/m2
16:05 66.6 °F 54.8 °F 29.83 in WNW 13.0 mph 22.0 mph 66 % 0.00 in 439 W/m2
16:10 66.6 °F 54.0 °F 29.83 in WNW 14.0 mph 25.0 mph 64 % 0.00 in 376 W/m2
16:15 66.7 °F 54.6 °F 29.84 in WNW 15.0 mph 26.0 mph 65 % 0.00 in 364 W/m2
16:20 66.7 °F 54.2 °F 29.83 in WNW 15.0 mph 26.0 mph 64 % 0.00 in 779 W/m2
16:25 67.3 °F 54.3 °F 29.83 in WNW 15.0 mph 27.0 mph 63 % 0.00 in 703 W/m2
16:30 67.5 °F 54.0 °F 29.83 in West 16.0 mph 31.0 mph 62 % 0.00 in 701 W/m2
16:35 67.6 °F 54.2 °F 29.83 in WNW 15.0 mph 31.0 mph 62 % 0.00 in 687 W/m2
16:40 67.8 °F 54.3 °F 29.83 in WNW 14.0 mph 27.0 mph 62 % 0.00 in 684 W/m2
16:45 67.8 °F 53.9 °F 29.84 in WNW 13.0 mph 27.0 mph 61 % 0.00 in 659 W/m2
16:50 68.0 °F 54.0 °F 29.83 in WNW 12.0 mph 24.0 mph 61 % 0.00 in 624 W/m2
16:55 67.8 °F 53.9 °F 29.83 in WNW 13.0 mph 23.0 mph 61 % 0.00 in 612 W/m2
17:00 67.6 °F 53.7 °F 29.83 in WNW 15.0 mph 25.0 mph 61 % 0.00 in 596 W/m2
17:05 67.5 °F 54.0 °F 29.83 in WNW 16.0 mph 25.0 mph 62 % 0.00 in 584 W/m2
17:10 67.5 °F 53.5 °F 29.83 in WNW 15.0 mph 25.0 mph 61 % 0.00 in 571 W/m2
17:15 67.5 °F 54.0 °F 29.83 in WNW 15.0 mph 25.0 mph 62 % 0.00 in 561 W/m2
17:20 67.6 °F 54.2 °F 29.83 in WNW 13.0 mph 24.0 mph 62 % 0.00 in 545 W/m2
17:25 67.8 °F 53.9 °F 29.83 in WNW 12.0 mph 21.0 mph 61 % 0.00 in 533 W/m2
17:30 67.8 °F 53.9 °F 29.83 in WNW 13.0 mph 23.0 mph 61 % 0.00 in 526 W/m2
17:35 68.0 °F 53.6 °F 29.83 in WNW 13.0 mph 23.0 mph 60 % 0.00 in 517 W/m2
17:40 68.2 °F 54.2 °F 29.83 in WNW 11.0 mph 22.0 mph 61 % 0.00 in 483 W/m2
17:45 68.2 °F 53.8 °F 29.83 in WNW 11.0 mph 21.0 mph 60 % 0.00 in 492 W/m2
17:50 68.0 °F 53.6 °F 29.83 in WNW 12.0 mph 24.0 mph 60 % 0.00 in 480 W/m2
17:55 67.6 °F 53.3 °F 29.83 in West 13.0 mph 24.0 mph 60 % 0.00 in 424 W/m2
18:00 66.9 °F 53.0 °F 29.84 in West 13.0 mph 22.0 mph 61 % 0.00 in 169 W/m2
18:02 66.7 °F 52.9 °F 29.84 in West 12.0 mph 22.0 mph 61 % 0.00 in 499 W/m2
18:07 66.7 °F 52.9 °F 29.84 in West 11.0 mph 21.0 mph 61 % 0.00 in 357 W/m2
18:12 66.6 °F 53.1 °F 29.84 in WNW 12.0 mph 24.0 mph 62 % 0.00 in 142 W/m2
18:17 66.0 °F 53.1 °F 29.84 in WNW 13.0 mph 24.0 mph 63 % 0.00 in 146 W/m2
18:22 65.7 °F 52.7 °F 29.84 in WNW 12.0 mph 22.0 mph 63 % 0.00 in 185 W/m2
18:27 65.5 °F 53.0 °F 29.84 in WNW 14.0 mph 24.0 mph 64 % 0.00 in 348 W/m2
18:32 65.8 °F 53.3 °F 29.84 in WNW 14.0 mph 24.0 mph 64 % 0.00 in 385 W/m2
18:37 66.0 °F 53.1 °F 29.85 in WNW 13.0 mph 21.0 mph 63 % 0.00 in 123 W/m2
18:42 65.8 °F 52.9 °F 29.85 in WNW 13.0 mph 23.0 mph 63 % 0.00 in 114 W/m2
18:47 65.3 °F 52.4 °F 29.85 in WNW 13.0 mph 25.0 mph 63 % 0.00 in 118 W/m2
18:52 64.4 °F 52.0 °F 29.85 in West 14.0 mph 25.0 mph 64 % 0.00 in 113 W/m2
18:57 64.0 °F 52.0 °F 29.86 in West 15.0 mph 24.0 mph 65 % 0.00 in 97 W/m2
19:02 63.9 °F 52.3 °F 29.86 in WNW 15.0 mph 26.0 mph 66 % 0.00 in 70 W/m2
19:07 63.7 °F 52.5 °F 29.86 in WNW 15.0 mph 26.0 mph 67 % 0.00 in 257 W/m2
19:12 63.9 °F 52.3 °F 29.87 in WNW 15.0 mph 25.0 mph 66 % 0.00 in 234 W/m2
19:17 63.9 °F 52.3 °F 29.86 in WNW 14.0 mph 25.0 mph 66 % 0.00 in 241 W/m2
19:22 64.0 °F 52.4 °F 29.86 in WNW 13.0 mph 24.0 mph 66 % 0.00 in 220 W/m2
19:27 64.0 °F 52.0 °F 29.86 in WNW 11.0 mph 24.0 mph 65 % 0.00 in 221 W/m2
19:32 64.0 °F 52.0 °F 29.86 in WNW 9.0 mph 16.0 mph 65 % 0.00 in 190 W/m2
19:37 64.2 °F 52.2 °F 29.86 in WNW 10.0 mph 19.0 mph 65 % 0.00 in 185 W/m2
19:42 64.0 °F 51.6 °F 29.86 in WNW 12.0 mph 21.0 mph 64 % 0.00 in 156 W/m2
19:47 63.9 °F 51.9 °F 29.86 in WNW 13.0 mph 21.0 mph 65 % 0.00 in 123 W/m2
19:52 63.9 °F 51.9 °F 29.87 in West 11.0 mph 21.0 mph 65 % 0.00 in 95 W/m2
19:58 63.3 °F 51.3 °F 29.87 in West 10.0 mph 22.0 mph 65 % 0.00 in 47 W/m2
20:03 62.8 °F 51.2 °F 29.87 in WNW 11.0 mph 22.0 mph 66 % 0.00 in 39 W/m2
20:08 62.2 °F 51.1 °F 29.87 in WNW 12.0 mph 22.0 mph 67 % 0.00 in 44 W/m2
20:13 61.9 °F 51.2 °F 29.87 in WNW 10.0 mph 22.0 mph 68 % 0.00 in 40 W/m2
20:18 61.7 °F 51.4 °F 29.87 in WNW 8.0 mph 15.0 mph 69 % 0.00 in 46 W/m2
20:23 61.3 °F 51.5 °F 29.87 in WNW 9.0 mph 18.0 mph 70 % 0.00 in 53 W/m2
20:28 61.2 °F 51.7 °F 29.87 in WNW 11.0 mph 22.0 mph 71 % 0.00 in 56 W/m2
20:33 61.2 °F 51.7 °F 29.87 in WNW 11.0 mph 22.0 mph 71 % 0.00 in 49 W/m2
20:38 61.0 °F 51.9 °F 29.87 in West 10.0 mph 18.0 mph 72 % 0.00 in 33 W/m2
20:43 61.0 °F 52.3 °F 29.87 in West 10.0 mph 18.0 mph 73 % 0.00 in 25 W/m2
20:48 60.6 °F 51.9 °F 29.87 in West 10.0 mph 19.0 mph 73 % 0.00 in 23 W/m2
20:53 60.6 °F 52.3 °F 29.88 in West 10.0 mph 19.0 mph 74 % 0.00 in 21 W/m2
20:58 60.4 °F 52.1 °F 29.88 in WNW 8.0 mph 15.0 mph 74 % 0.00 in 19 W/m2
21:03 60.4 °F 52.5 °F 29.88 in WNW 9.0 mph 16.0 mph 75 % 0.00 in 16 W/m2
21:08 60.3 °F 52.3 °F 29.88 in WNW 10.0 mph 16.0 mph 75 % 0.00 in 12 W/m2
21:13 60.3 °F 52.3 °F 29.88 in WNW 10.0 mph 16.0 mph 75 % 0.00 in 9 W/m2
21:18 60.1 °F 52.1 °F 29.88 in WNW 9.0 mph 15.0 mph 75 % 0.00 in 7 W/m2
21:23 59.9 °F 52.0 °F 29.88 in WNW 8.0 mph 14.0 mph 75 % 0.00 in 7 W/m2
21:28 59.7 °F 52.1 °F 29.88 in WNW 7.0 mph 12.0 mph 76 % 0.00 in 5 W/m2
21:33 59.5 °F 52.0 °F 29.88 in West 6.0 mph 12.0 mph 76 % 0.00 in 0 W/m2
21:38 59.4 °F 51.8 °F 29.88 in WNW 6.0 mph 14.0 mph 76 % 0.00 in 0 W/m2
21:43 59.4 °F 51.8 °F 29.89 in WNW 7.0 mph 14.0 mph 76 % 0.00 in 0 W/m2
21:48 59.2 °F 51.6 °F 29.89 in West 8.0 mph 16.0 mph 76 % 0.00 in 0 W/m2
21:53 59.2 °F 52.0 °F 29.89 in West 8.0 mph 16.0 mph 77 % 0.00 in 0 W/m2
21:59 59.0 °F 51.8 °F 29.88 in West 7.0 mph 13.0 mph 77 % 0.00 in 0 W/m2
22:04 58.8 °F 51.6 °F 29.88 in West 6.0 mph 13.0 mph 77 % 0.00 in 0 W/m2
22:09 58.8 °F 51.6 °F 29.88 in West 5.0 mph 9.0 mph 77 % 0.00 in 0 W/m2
22:14 58.8 °F 51.6 °F 29.89 in WSW 4.0 mph 9.0 mph 77 % 0.00 in 0 W/m2
22:19 58.8 °F 51.6 °F 29.89 in WSW 2.0 mph 6.0 mph 77 % 0.00 in 0 W/m2
22:24 58.8 °F 51.6 °F 29.89 in WSW 2.0 mph 6.0 mph 77 % 0.00 in 0 W/m2
22:29 58.6 °F 51.8 °F 29.89 in WSW 2.0 mph 7.0 mph 78 % 0.00 in 0 W/m2
22:30 58.6 °F 51.8 °F 29.88 in WSW 2.0 mph 7.0 mph 78 % 0.00 in 0 W/m2
22:35 58.6 °F 51.8 °F 29.89 in West 3.0 mph 9.0 mph 78 % 0.00 in 0 W/m2
22:40 58.6 °F 51.8 °F 29.88 in West 4.0 mph 9.0 mph 78 % 0.00 in 0 W/m2
22:46 58.6 °F 51.8 °F 29.89 in West 6.0 mph 14.0 mph 78 % 0.00 in 0 W/m2
22:51 58.6 °F 51.8 °F 29.89 in West 8.0 mph 14.0 mph 78 % 0.00 in 0 W/m2
22:56 58.8 °F 52.0 °F 29.89 in West 8.0 mph 13.0 mph 78 % 0.00 in 0 W/m2
23:01 58.8 °F 52.0 °F 29.89 in West 8.0 mph 13.0 mph 78 % 0.00 in 0 W/m2
23:06 58.8 °F 52.0 °F 29.89 in West 7.0 mph 12.0 mph 78 % 0.00 in 0 W/m2
23:11 58.6 °F 51.8 °F 29.89 in West 7.0 mph 12.0 mph 78 % 0.00 in 0 W/m2
23:16 58.6 °F 51.8 °F 29.88 in West 7.0 mph 13.0 mph 78 % 0.00 in 0 W/m2
23:21 58.6 °F 51.8 °F 29.88 in West 7.0 mph 13.0 mph 78 % 0.00 in 0 W/m2
23:26 58.6 °F 52.1 °F 29.88 in West 6.0 mph 10.0 mph 79 % 0.00 in 0 W/m2
23:31 58.6 °F 52.1 °F 29.88 in West 4.0 mph 7.0 mph 79 % 0.00 in 0 W/m2
23:36 58.6 °F 52.1 °F 29.88 in West 4.0 mph 7.0 mph 79 % 0.00 in 0 W/m2
23:41 58.6 °F 52.1 °F 29.88 in WSW 3.0 mph 7.0 mph 79 % 0.00 in 0 W/m2
23:46 58.6 °F 52.1 °F 29.88 in WSW 3.0 mph 7.0 mph 79 % 0.00 in 0 W/m2
23:51 58.6 °F 52.1 °F 29.88 in WSW 4.0 mph 7.0 mph 79 % 0.00 in 0 W/m2
23:56 58.6 °F 52.5 °F 29.88 in WSW 3.0 mph 6.0 mph 80 % 0.00 in 0 W/m2
Delerius-Weather
Compliments of Weather Underground - 2.25 mb

Data updates at regular intervals.